sensor_id;sensor_type;location;lat;lon;timestamp;P1;durP1;ratioP1;P2;durP2;ratioP2
27375;SDS011;14844;51.302;6.354;2022-07-29T00:00:42;3.92;;;1.42;;
27375;SDS011;14844;51.302;6.354;2022-07-29T00:03:11;5.72;;;1.52;;
27375;SDS011;14844;51.302;6.354;2022-07-29T00:05:41;6.18;;;1.50;;
27375;SDS011;14844;51.302;6.354;2022-07-29T00:08:07;5.40;;;1.52;;
27375;SDS011;14844;51.302;6.354;2022-07-29T00:10:33;6.95;;;1.42;;
27375;SDS011;14844;51.302;6.354;2022-07-29T00:12:59;6.40;;;1.67;;
27375;SDS011;14844;51.302;6.354;2022-07-29T00:15:26;8.45;;;2.03;;
27375;SDS011;14844;51.302;6.354;2022-07-29T00:17:51;5.97;;;1.50;;
27375;SDS011;14844;51.302;6.354;2022-07-29T00:20:17;5.40;;;1.52;;
27375;SDS011;14844;51.302;6.354;2022-07-29T00:22:43;6.80;;;1.48;;
27375;SDS011;14844;51.302;6.354;2022-07-29T00:25:08;6.50;;;1.55;;
27375;SDS011;14844;51.302;6.354;2022-07-29T00:27:37;5.18;;;1.42;;
27375;SDS011;14844;51.302;6.354;2022-07-29T00:30:03;7.65;;;1.95;;
27375;SDS011;14844;51.302;6.354;2022-07-29T00:32:30;8.45;;;1.40;;
27375;SDS011;14844;51.302;6.354;2022-07-29T00:34:55;10.85;;;2.05;;
27375;SDS011;14844;51.302;6.354;2022-07-29T00:37:39;7.38;;;1.65;;
27375;SDS011;14844;51.302;6.354;2022-07-29T00:40:05;5.82;;;1.35;;
27375;SDS011;14844;51.302;6.354;2022-07-29T00:42:40;5.15;;;1.30;;
27375;SDS011;14844;51.302;6.354;2022-07-29T00:45:07;5.05;;;1.50;;
27375;SDS011;14844;51.302;6.354;2022-07-29T00:47:33;9.20;;;1.83;;
27375;SDS011;14844;51.302;6.354;2022-07-29T00:49:59;5.95;;;1.40;;
27375;SDS011;14844;51.302;6.354;2022-07-29T00:52:24;6.07;;;1.52;;
27375;SDS011;14844;51.302;6.354;2022-07-29T00:54:50;7.80;;;1.73;;
27375;SDS011;14844;51.302;6.354;2022-07-29T00:57:16;4.38;;;1.40;;
27375;SDS011;14844;51.302;6.354;2022-07-29T00:59:41;4.78;;;1.50;;
27375;SDS011;14844;51.302;6.354;2022-07-29T01:02:07;6.40;;;1.90;;
27375;SDS011;14844;51.302;6.354;2022-07-29T01:04:33;5.78;;;1.50;;
27375;SDS011;14844;51.302;6.354;2022-07-29T01:07:00;4.95;;;1.60;;
27375;SDS011;14844;51.302;6.354;2022-07-29T01:09:26;6.45;;;1.40;;
27375;SDS011;14844;51.302;6.354;2022-07-29T01:11:53;6.72;;;1.60;;
27375;SDS011;14844;51.302;6.354;2022-07-29T01:14:19;6.28;;;1.60;;
27375;SDS011;14844;51.302;6.354;2022-07-29T01:17:00;4.85;;;1.70;;
27375;SDS011;14844;51.302;6.354;2022-07-29T01:25:41;6.15;;;1.65;;
27375;SDS011;14844;51.302;6.354;2022-07-29T01:31:14;6.53;;;1.50;;
27375;SDS011;14844;51.302;6.354;2022-07-29T01:33:43;9.90;;;1.92;;
27375;SDS011;14844;51.302;6.354;2022-07-29T01:39:16;11.15;;;1.60;;
27375;SDS011;14844;51.302;6.354;2022-07-29T01:41:59;7.55;;;1.60;;
27375;SDS011;14844;51.302;6.354;2022-07-29T01:44:34;9.45;;;1.50;;
27375;SDS011;14844;51.302;6.354;2022-07-29T01:47:05;3.33;;;1.25;;
27375;SDS011;14844;51.302;6.354;2022-07-29T01:49:38;5.82;;;1.33;;
27375;SDS011;14844;51.302;6.354;2022-07-29T01:52:13;6.50;;;1.38;;
27375;SDS011;14844;51.302;6.354;2022-07-29T01:54:45;8.75;;;1.77;;
27375;SDS011;14844;51.302;6.354;2022-07-29T01:57:19;3.83;;;1.30;;
27375;SDS011;14844;51.302;6.354;2022-07-29T01:59:49;4.72;;;1.55;;
27375;SDS011;14844;51.302;6.354;2022-07-29T02:02:17;5.97;;;1.80;;
27375;SDS011;14844;51.302;6.354;2022-07-29T02:04:44;7.20;;;1.60;;
27375;SDS011;14844;51.302;6.354;2022-07-29T02:07:13;6.25;;;1.40;;
27375;SDS011;14844;51.302;6.354;2022-07-29T02:09:47;6.90;;;1.48;;
27375;SDS011;14844;51.302;6.354;2022-07-29T02:12:16;9.70;;;1.48;;
27375;SDS011;14844;51.302;6.354;2022-07-29T02:14:44;11.45;;;1.92;;
27375;SDS011;14844;51.302;6.354;2022-07-29T02:17:17;10.88;;;2.58;;
27375;SDS011;14844;51.302;6.354;2022-07-29T02:19:48;6.75;;;1.80;;
27375;SDS011;14844;51.302;6.354;2022-07-29T02:22:14;9.25;;;1.98;;
27375;SDS011;14844;51.302;6.354;2022-07-29T02:24:43;7.20;;;1.77;;
27375;SDS011;14844;51.302;6.354;2022-07-29T02:27:09;7.80;;;1.70;;
27375;SDS011;14844;51.302;6.354;2022-07-29T02:29:37;6.20;;;1.58;;
27375;SDS011;14844;51.302;6.354;2022-07-29T02:32:04;6.53;;;1.65;;
27375;SDS011;14844;51.302;6.354;2022-07-29T02:34:33;4.13;;;1.45;;
27375;SDS011;14844;51.302;6.354;2022-07-29T02:37:00;7.35;;;1.75;;
27375;SDS011;14844;51.302;6.354;2022-07-29T02:39:27;7.07;;;2.05;;
27375;SDS011;14844;51.302;6.354;2022-07-29T02:41:55;5.68;;;1.40;;
27375;SDS011;14844;51.302;6.354;2022-07-29T02:44:28;10.13;;;1.70;;
27375;SDS011;14844;51.302;6.354;2022-07-29T02:46:59;6.45;;;1.35;;
27375;SDS011;14844;51.302;6.354;2022-07-29T02:52:44;7.57;;;1.30;;
27375;SDS011;14844;51.302;6.354;2022-07-29T02:55:33;7.35;;;1.40;;
27375;SDS011;14844;51.302;6.354;2022-07-29T02:58:27;11.60;;;1.70;;
27375;SDS011;14844;51.302;6.354;2022-07-29T03:00:59;7.13;;;1.67;;
27375;SDS011;14844;51.302;6.354;2022-07-29T03:03:28;5.40;;;1.55;;
27375;SDS011;14844;51.302;6.354;2022-07-29T03:05:59;12.52;;;1.40;;
27375;SDS011;14844;51.302;6.354;2022-07-29T03:08:26;4.35;;;1.48;;
27375;SDS011;14844;51.302;6.354;2022-07-29T03:10:52;6.68;;;1.40;;
27375;SDS011;14844;51.302;6.354;2022-07-29T03:13:19;4.90;;;1.63;;
27375;SDS011;14844;51.302;6.354;2022-07-29T03:15:45;5.90;;;1.20;;
27375;SDS011;14844;51.302;6.354;2022-07-29T03:18:12;5.85;;;1.80;;
27375;SDS011;14844;51.302;6.354;2022-07-29T03:20:42;7.63;;;1.73;;
27375;SDS011;14844;51.302;6.354;2022-07-29T03:23:08;12.32;;;1.98;;
27375;SDS011;14844;51.302;6.354;2022-07-29T03:25:34;7.53;;;1.45;;
27375;SDS011;14844;51.302;6.354;2022-07-29T03:28:03;7.07;;;2.28;;
27375;SDS011;14844;51.302;6.354;2022-07-29T03:30:38;5.72;;;2.10;;
27375;SDS011;14844;51.302;6.354;2022-07-29T03:33:09;7.75;;;1.98;;
27375;SDS011;14844;51.302;6.354;2022-07-29T03:35:43;11.38;;;2.03;;
27375;SDS011;14844;51.302;6.354;2022-07-29T03:38:09;8.77;;;2.17;;
27375;SDS011;14844;51.302;6.354;2022-07-29T03:40:38;5.97;;;2.30;;
27375;SDS011;14844;51.302;6.354;2022-07-29T03:43:09;12.90;;;2.58;;
27375;SDS011;14844;51.302;6.354;2022-07-29T03:45:38;11.02;;;2.40;;
27375;SDS011;14844;51.302;6.354;2022-07-29T03:48:08;5.63;;;2.10;;
27375;SDS011;14844;51.302;6.354;2022-07-29T03:50:37;12.27;;;2.78;;
27375;SDS011;14844;51.302;6.354;2022-07-29T03:53:08;9.50;;;2.75;;
27375;SDS011;14844;51.302;6.354;2022-07-29T03:55:37;6.93;;;2.53;;
27375;SDS011;14844;51.302;6.354;2022-07-29T03:58:07;9.60;;;2.95;;
27375;SDS011;14844;51.302;6.354;2022-07-29T04:00:34;8.52;;;2.90;;
27375;SDS011;14844;51.302;6.354;2022-07-29T04:03:01;10.38;;;2.97;;
27375;SDS011;14844;51.302;6.354;2022-07-29T04:05:28;7.72;;;3.30;;
27375;SDS011;14844;51.302;6.354;2022-07-29T04:07:54;10.90;;;3.50;;
27375;SDS011;14844;51.302;6.354;2022-07-29T04:10:20;7.90;;;3.65;;
27375;SDS011;14844;51.302;6.354;2022-07-29T04:12:45;11.93;;;3.63;;
27375;SDS011;14844;51.302;6.354;2022-07-29T04:15:11;10.80;;;3.40;;
27375;SDS011;14844;51.302;6.354;2022-07-29T04:17:37;13.95;;;4.20;;
27375;SDS011;14844;51.302;6.354;2022-07-29T04:20:03;10.48;;;4.32;;
27375;SDS011;14844;51.302;6.354;2022-07-29T04:22:29;11.30;;;4.78;;
27375;SDS011;14844;51.302;6.354;2022-07-29T04:28:10;12.25;;;4.40;;
27375;SDS011;14844;51.302;6.354;2022-07-29T04:30:37;11.60;;;5.45;;
27375;SDS011;14844;51.302;6.354;2022-07-29T04:33:04;13.90;;;5.55;;
27375;SDS011;14844;51.302;6.354;2022-07-29T04:35:30;11.40;;;5.53;;
27375;SDS011;14844;51.302;6.354;2022-07-29T04:37:59;11.00;;;5.95;;
27375;SDS011;14844;51.302;6.354;2022-07-29T04:40:24;11.32;;;5.82;;
27375;SDS011;14844;51.302;6.354;2022-07-29T04:42:50;11.32;;;5.32;;
27375;SDS011;14844;51.302;6.354;2022-07-29T04:45:15;10.35;;;4.78;;
27375;SDS011;14844;51.302;6.354;2022-07-29T04:47:41;9.57;;;4.57;;
27375;SDS011;14844;51.302;6.354;2022-07-29T04:50:07;10.05;;;5.10;;
27375;SDS011;14844;51.302;6.354;2022-07-29T04:52:34;12.27;;;5.00;;
27375;SDS011;14844;51.302;6.354;2022-07-29T04:55:00;8.93;;;4.57;;
27375;SDS011;14844;51.302;6.354;2022-07-29T04:57:26;11.05;;;4.70;;
27375;SDS011;14844;51.302;6.354;2022-07-29T04:59:52;9.05;;;4.97;;
27375;SDS011;14844;51.302;6.354;2022-07-29T05:02:17;16.92;;;5.57;;
27375;SDS011;14844;51.302;6.354;2022-07-29T05:04:43;14.13;;;5.45;;
27375;SDS011;14844;51.302;6.354;2022-07-29T05:07:08;19.00;;;6.38;;
27375;SDS011;14844;51.302;6.354;2022-07-29T05:09:34;10.10;;;5.20;;
27375;SDS011;14844;51.302;6.354;2022-07-29T05:12:00;11.50;;;5.28;;
27375;SDS011;14844;51.302;6.354;2022-07-29T05:14:25;10.98;;;5.35;;
27375;SDS011;14844;51.302;6.354;2022-07-29T05:16:51;12.30;;;5.22;;
27375;SDS011;14844;51.302;6.354;2022-07-29T05:19:17;10.77;;;4.90;;
27375;SDS011;14844;51.302;6.354;2022-07-29T05:21:44;15.55;;;5.70;;
27375;SDS011;14844;51.302;6.354;2022-07-29T05:24:10;8.02;;;4.78;;
27375;SDS011;14844;51.302;6.354;2022-07-29T05:26:35;12.93;;;5.20;;
27375;SDS011;14844;51.302;6.354;2022-07-29T05:29:01;9.35;;;5.20;;
27375;SDS011;14844;51.302;6.354;2022-07-29T05:31:27;11.35;;;5.20;;
27375;SDS011;14844;51.302;6.354;2022-07-29T05:33:52;16.83;;;5.68;;
27375;SDS011;14844;51.302;6.354;2022-07-29T05:36:18;9.85;;;5.20;;
27375;SDS011;14844;51.302;6.354;2022-07-29T05:38:43;13.32;;;4.80;;
27375;SDS011;14844;51.302;6.354;2022-07-29T05:41:09;11.57;;;5.13;;
27375;SDS011;14844;51.302;6.354;2022-07-29T05:43:36;10.68;;;4.72;;
27375;SDS011;14844;51.302;6.354;2022-07-29T05:46:01;9.05;;;4.63;;
27375;SDS011;14844;51.302;6.354;2022-07-29T05:48:27;9.75;;;4.45;;
27375;SDS011;14844;51.302;6.354;2022-07-29T05:50:53;9.90;;;5.15;;
27375;SDS011;14844;51.302;6.354;2022-07-29T05:53:19;10.00;;;4.63;;
27375;SDS011;14844;51.302;6.354;2022-07-29T05:55:45;14.05;;;5.15;;
27375;SDS011;14844;51.302;6.354;2022-07-29T05:58:11;13.10;;;4.90;;
27375;SDS011;14844;51.302;6.354;2022-07-29T06:00:36;7.95;;;4.10;;
27375;SDS011;14844;51.302;6.354;2022-07-29T06:03:02;6.13;;;4.03;;
27375;SDS011;14844;51.302;6.354;2022-07-29T06:05:27;8.50;;;4.25;;
27375;SDS011;14844;51.302;6.354;2022-07-29T06:07:53;8.25;;;4.47;;
27375;SDS011;14844;51.302;6.354;2022-07-29T06:10:18;15.15;;;4.50;;
27375;SDS011;14844;51.302;6.354;2022-07-29T06:12:44;13.25;;;4.03;;
27375;SDS011;14844;51.302;6.354;2022-07-29T06:15:09;8.32;;;4.00;;
27375;SDS011;14844;51.302;6.354;2022-07-29T06:17:35;11.38;;;4.78;;
27375;SDS011;14844;51.302;6.354;2022-07-29T06:20:01;10.93;;;4.82;;
27375;SDS011;14844;51.302;6.354;2022-07-29T06:22:27;12.60;;;5.07;;
27375;SDS011;14844;51.302;6.354;2022-07-29T06:24:53;12.35;;;4.40;;
27375;SDS011;14844;51.302;6.354;2022-07-29T06:27:19;16.42;;;4.97;;
27375;SDS011;14844;51.302;6.354;2022-07-29T06:29:44;10.02;;;4.82;;
27375;SDS011;14844;51.302;6.354;2022-07-29T06:32:10;11.10;;;4.75;;
27375;SDS011;14844;51.302;6.354;2022-07-29T06:34:36;15.07;;;4.82;;
27375;SDS011;14844;51.302;6.354;2022-07-29T06:37:07;13.80;;;5.65;;
27375;SDS011;14844;51.302;6.354;2022-07-29T06:39:36;9.63;;;4.75;;
27375;SDS011;14844;51.302;6.354;2022-07-29T06:42:05;14.70;;;5.07;;
27375;SDS011;14844;51.302;6.354;2022-07-29T06:44:31;11.07;;;5.30;;
27375;SDS011;14844;51.302;6.354;2022-07-29T06:46:58;9.10;;;5.00;;
27375;SDS011;14844;51.302;6.354;2022-07-29T06:49:24;16.73;;;6.00;;
27375;SDS011;14844;51.302;6.354;2022-07-29T06:51:51;14.10;;;5.45;;
27375;SDS011;14844;51.302;6.354;2022-07-29T06:54:17;10.10;;;5.70;;
27375;SDS011;14844;51.302;6.354;2022-07-29T06:56:43;11.43;;;5.40;;
27375;SDS011;14844;51.302;6.354;2022-07-29T06:59:09;11.43;;;5.97;;
27375;SDS011;14844;51.302;6.354;2022-07-29T07:01:36;9.38;;;5.18;;
27375;SDS011;14844;51.302;6.354;2022-07-29T07:04:02;12.75;;;5.80;;
27375;SDS011;14844;51.302;6.354;2022-07-29T07:06:28;14.75;;;5.80;;
27375;SDS011;14844;51.302;6.354;2022-07-29T07:08:54;9.07;;;5.70;;
27375;SDS011;14844;51.302;6.354;2022-07-29T07:11:19;17.13;;;6.53;;
27375;SDS011;14844;51.302;6.354;2022-07-29T07:13:45;13.95;;;5.50;;
27375;SDS011;14844;51.302;6.354;2022-07-29T07:16:10;13.63;;;5.88;;
27375;SDS011;14844;51.302;6.354;2022-07-29T07:18:36;14.48;;;5.13;;
27375;SDS011;14844;51.302;6.354;2022-07-29T07:21:01;8.95;;;5.18;;
27375;SDS011;14844;51.302;6.354;2022-07-29T07:23:45;9.48;;;4.80;;
27375;SDS011;14844;51.302;6.354;2022-07-29T07:26:16;25.60;;;5.85;;
27375;SDS011;14844;51.302;6.354;2022-07-29T07:28:55;10.95;;;4.78;;
27375;SDS011;14844;51.302;6.354;2022-07-29T07:35:03;8.85;;;5.20;;
27375;SDS011;14844;51.302;6.354;2022-07-29T07:37:30;12.95;;;5.43;;
27375;SDS011;14844;51.302;6.354;2022-07-29T07:39:56;12.98;;;5.47;;
27375;SDS011;14844;51.302;6.354;2022-07-29T07:42:22;13.68;;;5.38;;
27375;SDS011;14844;51.302;6.354;2022-07-29T07:44:51;11.43;;;5.57;;
27375;SDS011;14844;51.302;6.354;2022-07-29T07:47:22;13.93;;;5.43;;
27375;SDS011;14844;51.302;6.354;2022-07-29T08:00:13;13.50;;;5.80;;
27375;SDS011;14844;51.302;6.354;2022-07-29T08:02:43;12.93;;;5.50;;
27375;SDS011;14844;51.302;6.354;2022-07-29T08:08:11;10.57;;;5.18;;
27375;SDS011;14844;51.302;6.354;2022-07-29T08:10:37;14.68;;;5.72;;
27375;SDS011;14844;51.302;6.354;2022-07-29T08:13:18;12.25;;;6.05;;
27375;SDS011;14844;51.302;6.354;2022-07-29T08:15:45;10.57;;;5.28;;
27375;SDS011;14844;51.302;6.354;2022-07-29T08:18:13;10.00;;;4.88;;
27375;SDS011;14844;51.302;6.354;2022-07-29T08:27:27;8.80;;;5.15;;
27375;SDS011;14844;51.302;6.354;2022-07-29T08:29:55;10.30;;;4.90;;
27375;SDS011;14844;51.302;6.354;2022-07-29T08:32:22;15.20;;;5.38;;
27375;SDS011;14844;51.302;6.354;2022-07-29T08:34:58;11.15;;;6.07;;
27375;SDS011;14844;51.302;6.354;2022-07-29T08:37:23;15.27;;;5.40;;
27375;SDS011;14844;51.302;6.354;2022-07-29T08:39:49;11.60;;;4.82;;
27375;SDS011;14844;51.302;6.354;2022-07-29T08:42:15;9.68;;;4.38;;
27375;SDS011;14844;51.302;6.354;2022-07-29T08:44:41;15.75;;;4.50;;
27375;SDS011;14844;51.302;6.354;2022-07-29T08:47:10;8.25;;;3.50;;
27375;SDS011;14844;51.302;6.354;2022-07-29T08:49:42;10.05;;;3.60;;
27375;SDS011;14844;51.302;6.354;2022-07-29T08:52:11;9.63;;;3.70;;
27375;SDS011;14844;51.302;6.354;2022-07-29T08:54:42;7.15;;;3.10;;
27375;SDS011;14844;51.302;6.354;2022-07-29T08:57:09;11.02;;;3.35;;
27375;SDS011;14844;51.302;6.354;2022-07-29T08:59:38;7.13;;;3.17;;
27375;SDS011;14844;51.302;6.354;2022-07-29T09:02:10;9.05;;;3.00;;
27375;SDS011;14844;51.302;6.354;2022-07-29T09:04:44;9.25;;;3.65;;
27375;SDS011;14844;51.302;6.354;2022-07-29T09:07:10;7.32;;;3.00;;
27375;SDS011;14844;51.302;6.354;2022-07-29T09:09:43;9.50;;;3.33;;
27375;SDS011;14844;51.302;6.354;2022-07-29T09:12:10;13.02;;;3.63;;
27375;SDS011;14844;51.302;6.354;2022-07-29T09:14:39;9.57;;;3.47;;
27375;SDS011;14844;51.302;6.354;2022-07-29T09:17:06;10.70;;;3.17;;
27375;SDS011;14844;51.302;6.354;2022-07-29T09:19:33;11.93;;;3.75;;
27375;SDS011;14844;51.302;6.354;2022-07-29T09:22:05;7.85;;;3.92;;
27375;SDS011;14844;51.302;6.354;2022-07-29T09:24:46;9.02;;;3.70;;
27375;SDS011;14844;51.302;6.354;2022-07-29T09:30:00;12.02;;;3.90;;
27375;SDS011;14844;51.302;6.354;2022-07-29T09:32:35;15.82;;;4.43;;
27375;SDS011;14844;51.302;6.354;2022-07-29T09:35:24;7.07;;;3.50;;
27375;SDS011;14844;51.302;6.354;2022-07-29T09:38:30;9.43;;;4.10;;
27375;SDS011;14844;51.302;6.354;2022-07-29T09:41:09;8.73;;;4.15;;
27375;SDS011;14844;51.302;6.354;2022-07-29T09:43:55;8.82;;;4.18;;
27375;SDS011;14844;51.302;6.354;2022-07-29T09:46:33;11.75;;;4.28;;
27375;SDS011;14844;51.302;6.354;2022-07-29T09:49:12;13.43;;;4.10;;
27375;SDS011;14844;51.302;6.354;2022-07-29T09:52:09;9.43;;;4.53;;
27375;SDS011;14844;51.302;6.354;2022-07-29T09:58:32;10.80;;;4.47;;
27375;SDS011;14844;51.302;6.354;2022-07-29T10:04:09;9.90;;;4.20;;
27375;SDS011;14844;51.302;6.354;2022-07-29T10:06:57;10.13;;;4.00;;
27375;SDS011;14844;51.302;6.354;2022-07-29T10:09:24;11.10;;;3.72;;
27375;SDS011;14844;51.302;6.354;2022-07-29T10:12:06;8.65;;;3.33;;
27375;SDS011;14844;51.302;6.354;2022-07-29T10:14:46;8.10;;;3.22;;
27375;SDS011;14844;51.302;6.354;2022-07-29T10:17:33;10.13;;;3.88;;
27375;SDS011;14844;51.302;6.354;2022-07-29T10:24:40;11.00;;;3.53;;
27375;SDS011;14844;51.302;6.354;2022-07-29T11:06:04;11.15;;;4.07;;
27375;SDS011;14844;51.302;6.354;2022-07-29T11:08:50;11.25;;;3.63;;
27375;SDS011;14844;51.302;6.354;2022-07-29T11:22:45;8.15;;;4.22;;
27375;SDS011;14844;51.302;6.354;2022-07-29T11:29:01;12.50;;;4.20;;
27375;SDS011;14844;51.302;6.354;2022-07-29T11:32:09;14.15;;;4.60;;
27375;SDS011;14844;51.302;6.354;2022-07-29T11:52:35;8.50;;;4.25;;
27375;SDS011;14844;51.302;6.354;2022-07-29T11:58:04;10.43;;;4.82;;
27375;SDS011;14844;51.302;6.354;2022-07-29T12:00:45;11.00;;;4.67;;
27375;SDS011;14844;51.302;6.354;2022-07-29T12:03:23;9.68;;;4.78;;
27375;SDS011;14844;51.302;6.354;2022-07-29T12:05:54;8.20;;;5.07;;
27375;SDS011;14844;51.302;6.354;2022-07-29T13:04:23;5.75;;;3.20;;
27375;SDS011;14844;51.302;6.354;2022-07-29T13:28:59;8.23;;;3.95;;
27375;SDS011;14844;51.302;6.354;2022-07-29T13:32:15;8.20;;;4.20;;
27375;SDS011;14844;51.302;6.354;2022-07-29T13:39:04;14.13;;;4.55;;
27375;SDS011;14844;51.302;6.354;2022-07-29T13:41:42;7.60;;;4.50;;
27375;SDS011;14844;51.302;6.354;2022-07-29T13:51:27;8.93;;;4.68;;
27375;SDS011;14844;51.302;6.354;2022-07-29T13:54:05;10.63;;;4.55;;
27375;SDS011;14844;51.302;6.354;2022-07-29T13:56:39;9.40;;;4.88;;
27375;SDS011;14844;51.302;6.354;2022-07-29T13:59:38;10.82;;;4.78;;
27375;SDS011;14844;51.302;6.354;2022-07-29T14:05:53;13.43;;;5.13;;
27375;SDS011;14844;51.302;6.354;2022-07-29T14:12:43;11.05;;;3.70;;
27375;SDS011;14844;51.302;6.354;2022-07-29T16:51:56;4.22;;;1.70;;
27375;SDS011;14844;51.302;6.354;2022-07-29T17:55:38;10.70;;;2.00;;
27375;SDS011;14844;51.302;6.354;2022-07-29T17:59:07;3.38;;;1.70;;
27375;SDS011;14844;51.302;6.354;2022-07-29T18:01:34;7.80;;;2.08;;
27375;SDS011;14844;51.302;6.354;2022-07-29T18:04:01;6.10;;;2.08;;
27375;SDS011;14844;51.302;6.354;2022-07-29T18:06:26;9.10;;;1.58;;
27375;SDS011;14844;51.302;6.354;2022-07-29T18:08:52;2.72;;;1.40;;
27375;SDS011;14844;51.302;6.354;2022-07-29T18:11:19;3.58;;;1.52;;
27375;SDS011;14844;51.302;6.354;2022-07-29T18:13:46;7.05;;;1.70;;
27375;SDS011;14844;51.302;6.354;2022-07-29T18:16:11;5.88;;;1.60;;
27375;SDS011;14844;51.302;6.354;2022-07-29T18:18:37;3.83;;;1.58;;
27375;SDS011;14844;51.302;6.354;2022-07-29T18:21:03;3.80;;;1.45;;
27375;SDS011;14844;51.302;6.354;2022-07-29T18:23:29;4.57;;;1.65;;
27375;SDS011;14844;51.302;6.354;2022-07-29T18:25:55;3.50;;;1.50;;
27375;SDS011;14844;51.302;6.354;2022-07-29T18:28:21;4.55;;;1.80;;
27375;SDS011;14844;51.302;6.354;2022-07-29T18:30:47;6.20;;;1.67;;
27375;SDS011;14844;51.302;6.354;2022-07-29T18:33:12;4.47;;;1.58;;
27375;SDS011;14844;51.302;6.354;2022-07-29T18:35:43;25.55;;;2.78;;
27375;SDS011;14844;51.302;6.354;2022-07-29T18:38:13;24.77;;;2.10;;
27375;SDS011;14844;51.302;6.354;2022-07-29T18:40:39;10.35;;;2.00;;
27375;SDS011;14844;51.302;6.354;2022-07-29T18:43:06;4.00;;;1.65;;
27375;SDS011;14844;51.302;6.354;2022-07-29T18:45:32;6.32;;;1.70;;
27375;SDS011;14844;51.302;6.354;2022-07-29T18:47:58;14.75;;;2.15;;
27375;SDS011;14844;51.302;6.354;2022-07-29T18:50:24;10.02;;;2.20;;
27375;SDS011;14844;51.302;6.354;2022-07-29T18:52:50;7.95;;;1.75;;
27375;SDS011;14844;51.302;6.354;2022-07-29T18:55:16;6.07;;;1.73;;
27375;SDS011;14844;51.302;6.354;2022-07-29T18:57:42;8.23;;;1.65;;
27375;SDS011;14844;51.302;6.354;2022-07-29T19:00:08;4.70;;;1.88;;
27375;SDS011;14844;51.302;6.354;2022-07-29T19:02:35;5.20;;;1.67;;
27375;SDS011;14844;51.302;6.354;2022-07-29T19:05:02;5.15;;;1.92;;
27375;SDS011;14844;51.302;6.354;2022-07-29T19:07:33;8.93;;;1.92;;
27375;SDS011;14844;51.302;6.354;2022-07-29T19:09:59;8.10;;;2.00;;
27375;SDS011;14844;51.302;6.354;2022-07-29T19:12:25;5.28;;;2.00;;
27375;SDS011;14844;51.302;6.354;2022-07-29T19:14:50;32.17;;;3.03;;
27375;SDS011;14844;51.302;6.354;2022-07-29T19:17:16;18.00;;;2.60;;
27375;SDS011;14844;51.302;6.354;2022-07-29T19:19:42;10.55;;;2.33;;
27375;SDS011;14844;51.302;6.354;2022-07-29T19:22:07;10.85;;;2.33;;
27375;SDS011;14844;51.302;6.354;2022-07-29T19:24:33;16.08;;;2.67;;
27375;SDS011;14844;51.302;6.354;2022-07-29T19:26:59;11.38;;;2.67;;
27375;SDS011;14844;51.302;6.354;2022-07-29T19:29:25;8.65;;;2.50;;
27375;SDS011;14844;51.302;6.354;2022-07-29T19:31:51;32.33;;;19.85;;
27375;SDS011;14844;51.302;6.354;2022-07-29T19:34:17;21.75;;;13.07;;
27375;SDS011;14844;51.302;6.354;2022-07-29T19:36:43;24.83;;;14.60;;
27375;SDS011;14844;51.302;6.354;2022-07-29T19:39:08;31.33;;;15.00;;
27375;SDS011;14844;51.302;6.354;2022-07-29T19:41:35;27.10;;;13.75;;
27375;SDS011;14844;51.302;6.354;2022-07-29T19:44:01;21.92;;;10.63;;
27375;SDS011;14844;51.302;6.354;2022-07-29T19:46:27;18.10;;;9.13;;
27375;SDS011;14844;51.302;6.354;2022-07-29T19:48:53;16.10;;;8.70;;
27375;SDS011;14844;51.302;6.354;2022-07-29T19:51:20;14.20;;;6.32;;
27375;SDS011;14844;51.302;6.354;2022-07-29T19:53:46;17.67;;;9.60;;
27375;SDS011;14844;51.302;6.354;2022-07-29T19:56:12;12.98;;;7.40;;
27375;SDS011;14844;51.302;6.354;2022-07-29T19:58:38;10.35;;;4.68;;
27375;SDS011;14844;51.302;6.354;2022-07-29T20:01:04;10.48;;;3.60;;
27375;SDS011;14844;51.302;6.354;2022-07-29T20:03:30;9.18;;;3.47;;
27375;SDS011;14844;51.302;6.354;2022-07-29T20:05:56;6.72;;;3.78;;
27375;SDS011;14844;51.302;6.354;2022-07-29T20:08:22;8.63;;;3.47;;
27375;SDS011;14844;51.302;6.354;2022-07-29T20:10:48;7.68;;;3.83;;
27375;SDS011;14844;51.302;6.354;2022-07-29T20:13:13;6.28;;;3.20;;
27375;SDS011;14844;51.302;6.354;2022-07-29T20:15:39;9.60;;;3.95;;
27375;SDS011;14844;51.302;6.354;2022-07-29T20:18:05;7.47;;;3.40;;
27375;SDS011;14844;51.302;6.354;2022-07-29T20:20:33;5.50;;;3.10;;
27375;SDS011;14844;51.302;6.354;2022-07-29T20:22:59;5.07;;;3.17;;
27375;SDS011;14844;51.302;6.354;2022-07-29T20:25:26;7.53;;;3.92;;
27375;SDS011;14844;51.302;6.354;2022-07-29T20:27:52;5.93;;;3.38;;
27375;SDS011;14844;51.302;6.354;2022-07-29T20:30:18;11.43;;;3.15;;
27375;SDS011;14844;51.302;6.354;2022-07-29T20:32:44;7.35;;;3.35;;
27375;SDS011;14844;51.302;6.354;2022-07-29T20:35:10;6.05;;;3.28;;
27375;SDS011;14844;51.302;6.354;2022-07-29T20:37:37;7.43;;;3.28;;
27375;SDS011;14844;51.302;6.354;2022-07-29T20:40:04;8.02;;;3.90;;
27375;SDS011;14844;51.302;6.354;2022-07-29T20:42:31;7.68;;;3.50;;
27375;SDS011;14844;51.302;6.354;2022-07-29T20:44:56;13.25;;;4.00;;
27375;SDS011;14844;51.302;6.354;2022-07-29T20:47:22;11.50;;;3.90;;
27375;SDS011;14844;51.302;6.354;2022-07-29T20:49:54;10.05;;;3.60;;
27375;SDS011;14844;51.302;6.354;2022-07-29T20:52:22;7.32;;;3.90;;
27375;SDS011;14844;51.302;6.354;2022-07-29T20:54:49;9.20;;;3.60;;
27375;SDS011;14844;51.302;6.354;2022-07-29T20:57:14;6.75;;;3.70;;
27375;SDS011;14844;51.302;6.354;2022-07-29T20:59:40;21.30;;;4.10;;
27375;SDS011;14844;51.302;6.354;2022-07-29T21:02:08;7.45;;;3.60;;
27375;SDS011;14844;51.302;6.354;2022-07-29T21:04:34;10.70;;;4.18;;
27375;SDS011;14844;51.302;6.354;2022-07-29T21:07:01;8.60;;;3.63;;
27375;SDS011;14844;51.302;6.354;2022-07-29T21:09:27;9.80;;;3.97;;
27375;SDS011;14844;51.302;6.354;2022-07-29T21:11:53;12.63;;;3.70;;
27375;SDS011;14844;51.302;6.354;2022-07-29T21:14:18;8.15;;;3.90;;
27375;SDS011;14844;51.302;6.354;2022-07-29T21:17:04;8.38;;;4.20;;
27375;SDS011;14844;51.302;6.354;2022-07-29T21:19:31;9.23;;;4.10;;
27375;SDS011;14844;51.302;6.354;2022-07-29T21:21:59;9.13;;;3.83;;
27375;SDS011;14844;51.302;6.354;2022-07-29T21:24:25;8.73;;;3.90;;
27375;SDS011;14844;51.302;6.354;2022-07-29T21:26:51;8.35;;;4.40;;
27375;SDS011;14844;51.302;6.354;2022-07-29T21:29:16;9.77;;;4.10;;
27375;SDS011;14844;51.302;6.354;2022-07-29T21:31:42;13.23;;;4.13;;
27375;SDS011;14844;51.302;6.354;2022-07-29T21:34:08;7.50;;;3.97;;
27375;SDS011;14844;51.302;6.354;2022-07-29T21:36:34;10.27;;;4.03;;
27375;SDS011;14844;51.302;6.354;2022-07-29T21:39:00;8.15;;;3.95;;
27375;SDS011;14844;51.302;6.354;2022-07-29T21:41:30;10.05;;;4.57;;
27375;SDS011;14844;51.302;6.354;2022-07-29T21:43:57;9.68;;;4.20;;
27375;SDS011;14844;51.302;6.354;2022-07-29T21:46:22;10.95;;;4.25;;
27375;SDS011;14844;51.302;6.354;2022-07-29T21:48:48;6.47;;;3.72;;
27375;SDS011;14844;51.302;6.354;2022-07-29T21:51:13;5.95;;;3.47;;
27375;SDS011;14844;51.302;6.354;2022-07-29T21:53:39;7.85;;;3.78;;
27375;SDS011;14844;51.302;6.354;2022-07-29T21:56:05;7.05;;;3.60;;
27375;SDS011;14844;51.302;6.354;2022-07-29T21:58:30;6.55;;;3.97;;
27375;SDS011;14844;51.302;6.354;2022-07-29T22:00:56;10.98;;;3.92;;
27375;SDS011;14844;51.302;6.354;2022-07-29T22:03:21;8.85;;;4.20;;
27375;SDS011;14844;51.302;6.354;2022-07-29T22:05:47;10.43;;;4.40;;
27375;SDS011;14844;51.302;6.354;2022-07-29T22:08:13;10.00;;;4.72;;
27375;SDS011;14844;51.302;6.354;2022-07-29T22:10:38;11.52;;;4.50;;
27375;SDS011;14844;51.302;6.354;2022-07-29T22:13:04;6.45;;;4.15;;
27375;SDS011;14844;51.302;6.354;2022-07-29T22:15:30;10.27;;;4.55;;
27375;SDS011;14844;51.302;6.354;2022-07-29T22:17:56;6.95;;;4.10;;